หน้าหลัก
METAR-TAF:

METAR-TAF

ท่าอากาศยาน :

Pilanesberg International Airport

Sun City, แอฟริกาใต้

ละติจูด: 25-20-01S, ลองจิจูด: 027-10-24E, ความสูง: 1040 ม.

การสังเกตสภาพอากาศปัจจุบัน

รายงานได้ทำขึ้นเมื่อ 46 นาทีที่แล้ว ณ เวลา 08:00 UTC
ลมสงบ
อุณหภูมิ 24°C
ความชื้น 47%
ความกดอากาศ 1024 hPa

METAR: FAPN 200800Z AUTO 00000KT //// // ////// 24/12 Q1024

เวลา: 10:46 (08:46 UTC)


TAF: หายไป

สังเกตการณ์สภาพอากาศและพยากรณ์อากาศของสนามบินมากกว่า 4000 แห่ง (รายงาน METAR และ TAF).

สถานีที่ดูได้จะแสดงไว้ด้วยจุดสีเหลืองและสีแดงบนแผนที่.

เลื่อนเมาส์ไปเหนือจุดเพื่อดูชื่อสถานี.

แล้วคลิกเพื่อดูสังเกตการณ์และการพยากรณ์สภาพอากาศ.

ในการเปลี่ยนแผนที่: คลิกที่ปุ่มสีเขียวที่มีกากบาทสีดำเพื่อซูมเข้า; ที่ปุ่มสีเขียวที่มีขีดเพื่อซูมออก; หรือที่ลูกศรสีเขียวเพื่อไปยังแผนที่ที่อยู่ติดกัน.


METAR-TAF: